sensor_id;sensor_type;location;lat;lon;timestamp;P1;durP1;ratioP1;P2;durP2;ratioP2
1354;SDS011;671;48.972;9.276;2023-05-15T00:00:38;0.43;;;0.43;;
1354;SDS011;671;48.972;9.276;2023-05-15T00:03:05;0.60;;;0.60;;
1354;SDS011;671;48.972;9.276;2023-05-15T00:05:31;0.50;;;0.50;;
1354;SDS011;671;48.972;9.276;2023-05-15T00:07:58;0.50;;;0.50;;
1354;SDS011;671;48.972;9.276;2023-05-15T00:10:24;0.50;;;0.50;;
1354;SDS011;671;48.972;9.276;2023-05-15T00:12:51;0.40;;;0.40;;
1354;SDS011;671;48.972;9.276;2023-05-15T00:15:17;0.50;;;0.50;;
1354;SDS011;671;48.972;9.276;2023-05-15T00:17:44;0.50;;;0.50;;
1354;SDS011;671;48.972;9.276;2023-05-15T00:20:10;0.40;;;0.40;;
1354;SDS011;671;48.972;9.276;2023-05-15T00:22:37;0.50;;;0.50;;
1354;SDS011;671;48.972;9.276;2023-05-15T00:25:04;0.60;;;0.60;;
1354;SDS011;671;48.972;9.276;2023-05-15T00:27:31;0.60;;;0.60;;
1354;SDS011;671;48.972;9.276;2023-05-15T00:29:57;0.60;;;0.60;;
1354;SDS011;671;48.972;9.276;2023-05-15T00:32:24;0.50;;;0.50;;
1354;SDS011;671;48.972;9.276;2023-05-15T00:34:50;0.60;;;0.60;;
1354;SDS011;671;48.972;9.276;2023-05-15T00:37:17;0.40;;;0.40;;
1354;SDS011;671;48.972;9.276;2023-05-15T00:39:44;0.40;;;0.40;;
1354;SDS011;671;48.972;9.276;2023-05-15T00:42:10;0.50;;;0.50;;
1354;SDS011;671;48.972;9.276;2023-05-15T00:44:38;0.50;;;0.50;;
1354;SDS011;671;48.972;9.276;2023-05-15T00:47:06;0.40;;;0.40;;
1354;SDS011;671;48.972;9.276;2023-05-15T00:49:35;0.47;;;0.47;;
1354;SDS011;671;48.972;9.276;2023-05-15T00:52:03;0.40;;;0.40;;
1354;SDS011;671;48.972;9.276;2023-05-15T00:54:33;0.47;;;0.47;;
1354;SDS011;671;48.972;9.276;2023-05-15T00:57:00;0.50;;;0.50;;
1354;SDS011;671;48.972;9.276;2023-05-15T00:59:28;0.50;;;0.50;;
1354;SDS011;671;48.972;9.276;2023-05-15T01:01:56;0.50;;;0.50;;
1354;SDS011;671;48.972;9.276;2023-05-15T01:04:23;0.47;;;0.47;;
1354;SDS011;671;48.972;9.276;2023-05-15T01:06:49;0.50;;;0.50;;
1354;SDS011;671;48.972;9.276;2023-05-15T01:09:18;0.60;;;0.60;;
1354;SDS011;671;48.972;9.276;2023-05-15T01:11:49;0.40;;;0.30;;
1354;SDS011;671;48.972;9.276;2023-05-15T01:14:18;0.43;;;0.43;;
1354;SDS011;671;48.972;9.276;2023-05-15T01:16:44;0.50;;;0.50;;
1354;SDS011;671;48.972;9.276;2023-05-15T01:19:11;0.40;;;0.40;;
1354;SDS011;671;48.972;9.276;2023-05-15T01:21:49;0.60;;;0.60;;
1354;SDS011;671;48.972;9.276;2023-05-15T01:35:22;0.50;;;0.50;;
1354;SDS011;671;48.972;9.276;2023-05-15T01:37:59;0.50;;;0.50;;
1354;SDS011;671;48.972;9.276;2023-05-15T01:40:27;0.43;;;0.43;;
1354;SDS011;671;48.972;9.276;2023-05-15T01:42:55;0.50;;;0.50;;
1354;SDS011;671;48.972;9.276;2023-05-15T01:45:26;0.53;;;0.53;;
1354;SDS011;671;48.972;9.276;2023-05-15T01:47:55;0.47;;;0.47;;
1354;SDS011;671;48.972;9.276;2023-05-15T01:50:23;0.53;;;0.53;;
1354;SDS011;671;48.972;9.276;2023-05-15T01:52:53;0.50;;;0.50;;
1354;SDS011;671;48.972;9.276;2023-05-15T01:55:22;0.50;;;0.50;;
1354;SDS011;671;48.972;9.276;2023-05-15T01:57:50;0.50;;;0.50;;
1354;SDS011;671;48.972;9.276;2023-05-15T02:00:17;0.40;;;0.40;;
1354;SDS011;671;48.972;9.276;2023-05-15T02:02:45;0.50;;;0.50;;
1354;SDS011;671;48.972;9.276;2023-05-15T02:05:14;0.47;;;0.47;;
1354;SDS011;671;48.972;9.276;2023-05-15T02:07:42;0.60;;;0.60;;
1354;SDS011;671;48.972;9.276;2023-05-15T02:10:10;0.50;;;0.50;;
1354;SDS011;671;48.972;9.276;2023-05-15T02:12:39;0.57;;;0.57;;
1354;SDS011;671;48.972;9.276;2023-05-15T02:15:10;0.50;;;0.50;;
1354;SDS011;671;48.972;9.276;2023-05-15T02:17:36;0.40;;;0.40;;
1354;SDS011;671;48.972;9.276;2023-05-15T02:20:03;0.50;;;0.50;;
1354;SDS011;671;48.972;9.276;2023-05-15T02:22:31;0.50;;;0.50;;
1354;SDS011;671;48.972;9.276;2023-05-15T02:24:57;0.50;;;0.50;;
1354;SDS011;671;48.972;9.276;2023-05-15T02:27:27;0.50;;;0.50;;
1354;SDS011;671;48.972;9.276;2023-05-15T02:30:05;0.50;;;0.50;;
1354;SDS011;671;48.972;9.276;2023-05-15T02:37:47;0.50;;;0.50;;
1354;SDS011;671;48.972;9.276;2023-05-15T02:40:18;0.57;;;0.57;;
1354;SDS011;671;48.972;9.276;2023-05-15T02:42:48;0.50;;;0.50;;
1354;SDS011;671;48.972;9.276;2023-05-15T02:45:17;0.50;;;0.50;;
1354;SDS011;671;48.972;9.276;2023-05-15T02:47:44;0.60;;;0.60;;
1354;SDS011;671;48.972;9.276;2023-05-15T02:50:15;0.50;;;0.50;;
1354;SDS011;671;48.972;9.276;2023-05-15T02:52:42;0.50;;;0.50;;
1354;SDS011;671;48.972;9.276;2023-05-15T02:55:08;0.50;;;0.50;;
1354;SDS011;671;48.972;9.276;2023-05-15T02:57:35;0.50;;;0.50;;
1354;SDS011;671;48.972;9.276;2023-05-15T03:00:02;0.60;;;0.60;;
1354;SDS011;671;48.972;9.276;2023-05-15T03:02:32;0.50;;;0.50;;
1354;SDS011;671;48.972;9.276;2023-05-15T03:04:58;0.50;;;0.50;;
1354;SDS011;671;48.972;9.276;2023-05-15T03:07:25;0.60;;;0.60;;
1354;SDS011;671;48.972;9.276;2023-05-15T03:09:52;0.50;;;0.50;;
1354;SDS011;671;48.972;9.276;2023-05-15T03:12:18;0.50;;;0.50;;
1354;SDS011;671;48.972;9.276;2023-05-15T03:14:45;0.50;;;0.50;;
1354;SDS011;671;48.972;9.276;2023-05-15T03:17:11;0.50;;;0.50;;
1354;SDS011;671;48.972;9.276;2023-05-15T03:19:38;0.50;;;0.50;;
1354;SDS011;671;48.972;9.276;2023-05-15T03:22:04;0.50;;;0.50;;
1354;SDS011;671;48.972;9.276;2023-05-15T03:24:31;0.50;;;0.50;;
1354;SDS011;671;48.972;9.276;2023-05-15T03:26:57;0.50;;;0.50;;
1354;SDS011;671;48.972;9.276;2023-05-15T03:29:23;0.50;;;0.50;;
1354;SDS011;671;48.972;9.276;2023-05-15T03:31:50;0.50;;;0.50;;
1354;SDS011;671;48.972;9.276;2023-05-15T03:34:17;0.50;;;0.50;;
1354;SDS011;671;48.972;9.276;2023-05-15T03:36:43;0.40;;;0.40;;
1354;SDS011;671;48.972;9.276;2023-05-15T03:39:09;0.50;;;0.50;;
1354;SDS011;671;48.972;9.276;2023-05-15T03:41:36;0.50;;;0.50;;
1354;SDS011;671;48.972;9.276;2023-05-15T03:44:03;0.50;;;0.50;;
1354;SDS011;671;48.972;9.276;2023-05-15T03:46:29;0.40;;;0.40;;
1354;SDS011;671;48.972;9.276;2023-05-15T03:48:56;0.40;;;0.40;;
1354;SDS011;671;48.972;9.276;2023-05-15T03:51:22;0.50;;;0.50;;
1354;SDS011;671;48.972;9.276;2023-05-15T03:53:49;0.40;;;0.40;;
1354;SDS011;671;48.972;9.276;2023-05-15T03:56:15;0.50;;;0.50;;
1354;SDS011;671;48.972;9.276;2023-05-15T03:58:43;0.50;;;0.50;;
1354;SDS011;671;48.972;9.276;2023-05-15T04:01:09;0.40;;;0.40;;
1354;SDS011;671;48.972;9.276;2023-05-15T04:03:36;0.40;;;0.40;;
1354;SDS011;671;48.972;9.276;2023-05-15T04:06:02;0.50;;;0.50;;
1354;SDS011;671;48.972;9.276;2023-05-15T04:08:29;0.40;;;0.40;;
1354;SDS011;671;48.972;9.276;2023-05-15T04:10:56;0.50;;;0.50;;
1354;SDS011;671;48.972;9.276;2023-05-15T04:13:23;0.50;;;0.50;;
1354;SDS011;671;48.972;9.276;2023-05-15T04:15:50;0.50;;;0.50;;
1354;SDS011;671;48.972;9.276;2023-05-15T04:18:16;0.50;;;0.50;;
1354;SDS011;671;48.972;9.276;2023-05-15T04:20:43;0.50;;;0.50;;
1354;SDS011;671;48.972;9.276;2023-05-15T04:23:09;0.50;;;0.50;;
1354;SDS011;671;48.972;9.276;2023-05-15T04:25:36;0.50;;;0.50;;
1354;SDS011;671;48.972;9.276;2023-05-15T04:28:03;0.50;;;0.50;;
1354;SDS011;671;48.972;9.276;2023-05-15T04:30:29;0.50;;;0.50;;
1354;SDS011;671;48.972;9.276;2023-05-15T04:32:56;0.40;;;0.40;;
1354;SDS011;671;48.972;9.276;2023-05-15T04:35:23;0.50;;;0.50;;
1354;SDS011;671;48.972;9.276;2023-05-15T04:37:49;0.50;;;0.50;;
1354;SDS011;671;48.972;9.276;2023-05-15T04:40:16;0.50;;;0.50;;
1354;SDS011;671;48.972;9.276;2023-05-15T04:42:42;0.60;;;0.60;;
1354;SDS011;671;48.972;9.276;2023-05-15T04:45:09;0.47;;;0.47;;
1354;SDS011;671;48.972;9.276;2023-05-15T04:47:36;0.50;;;0.50;;
1354;SDS011;671;48.972;9.276;2023-05-15T04:50:02;0.50;;;0.50;;
1354;SDS011;671;48.972;9.276;2023-05-15T04:52:29;0.43;;;0.43;;
1354;SDS011;671;48.972;9.276;2023-05-15T04:54:57;0.40;;;0.40;;
1354;SDS011;671;48.972;9.276;2023-05-15T04:57:23;0.50;;;0.50;;
1354;SDS011;671;48.972;9.276;2023-05-15T04:59:50;0.40;;;0.40;;
1354;SDS011;671;48.972;9.276;2023-05-15T05:02:20;0.40;;;0.37;;
1354;SDS011;671;48.972;9.276;2023-05-15T05:04:47;0.50;;;0.50;;
1354;SDS011;671;48.972;9.276;2023-05-15T05:07:13;0.50;;;0.50;;
1354;SDS011;671;48.972;9.276;2023-05-15T05:09:40;0.50;;;0.50;;
1354;SDS011;671;48.972;9.276;2023-05-15T05:12:07;0.40;;;0.40;;
1354;SDS011;671;48.972;9.276;2023-05-15T05:14:34;0.50;;;0.50;;
1354;SDS011;671;48.972;9.276;2023-05-15T05:17:01;0.50;;;0.50;;
1354;SDS011;671;48.972;9.276;2023-05-15T05:19:28;0.43;;;0.43;;
1354;SDS011;671;48.972;9.276;2023-05-15T05:21:54;0.40;;;0.40;;
1354;SDS011;671;48.972;9.276;2023-05-15T05:24:23;0.47;;;0.47;;
1354;SDS011;671;48.972;9.276;2023-05-15T05:26:50;0.40;;;0.40;;
1354;SDS011;671;48.972;9.276;2023-05-15T05:29:16;0.40;;;0.40;;
1354;SDS011;671;48.972;9.276;2023-05-15T05:31:44;0.40;;;0.40;;
1354;SDS011;671;48.972;9.276;2023-05-15T05:34:11;0.40;;;0.40;;
1354;SDS011;671;48.972;9.276;2023-05-15T05:36:38;0.40;;;0.40;;
1354;SDS011;671;48.972;9.276;2023-05-15T05:39:04;0.40;;;0.40;;
1354;SDS011;671;48.972;9.276;2023-05-15T05:41:31;0.30;;;0.30;;
1354;SDS011;671;48.972;9.276;2023-05-15T05:43:58;0.30;;;0.30;;
1354;SDS011;671;48.972;9.276;2023-05-15T05:46:24;0.40;;;0.40;;
1354;SDS011;671;48.972;9.276;2023-05-15T05:48:52;0.30;;;0.30;;
1354;SDS011;671;48.972;9.276;2023-05-15T05:51:18;0.40;;;0.40;;
1354;SDS011;671;48.972;9.276;2023-05-15T05:53:45;0.30;;;0.30;;
1354;SDS011;671;48.972;9.276;2023-05-15T05:56:11;0.40;;;0.40;;
1354;SDS011;671;48.972;9.276;2023-05-15T05:58:38;0.30;;;0.30;;
1354;SDS011;671;48.972;9.276;2023-05-15T06:01:04;0.40;;;0.40;;
1354;SDS011;671;48.972;9.276;2023-05-15T06:03:31;0.30;;;0.30;;
1354;SDS011;671;48.972;9.276;2023-05-15T06:05:59;0.40;;;0.40;;
1354;SDS011;671;48.972;9.276;2023-05-15T06:08:28;0.40;;;0.40;;
1354;SDS011;671;48.972;9.276;2023-05-15T06:10:54;0.40;;;0.40;;
1354;SDS011;671;48.972;9.276;2023-05-15T06:13:21;0.33;;;0.33;;
1354;SDS011;671;48.972;9.276;2023-05-15T06:15:48;0.33;;;0.33;;
1354;SDS011;671;48.972;9.276;2023-05-15T06:18:16;0.30;;;0.30;;
1354;SDS011;671;48.972;9.276;2023-05-15T06:20:42;0.30;;;0.30;;
1354;SDS011;671;48.972;9.276;2023-05-15T06:23:09;0.40;;;0.33;;
1354;SDS011;671;48.972;9.276;2023-05-15T06:25:35;0.50;;;0.50;;
1354;SDS011;671;48.972;9.276;2023-05-15T06:28:02;0.40;;;0.40;;
1354;SDS011;671;48.972;9.276;2023-05-15T06:30:28;0.30;;;0.30;;
1354;SDS011;671;48.972;9.276;2023-05-15T06:32:55;0.30;;;0.30;;
1354;SDS011;671;48.972;9.276;2023-05-15T06:35:21;0.40;;;0.40;;
1354;SDS011;671;48.972;9.276;2023-05-15T06:37:51;0.40;;;0.40;;
1354;SDS011;671;48.972;9.276;2023-05-15T06:40:19;0.40;;;0.40;;
1354;SDS011;671;48.972;9.276;2023-05-15T06:42:45;0.40;;;0.40;;
1354;SDS011;671;48.972;9.276;2023-05-15T06:45:12;0.30;;;0.30;;
1354;SDS011;671;48.972;9.276;2023-05-15T06:47:39;0.30;;;0.30;;
1354;SDS011;671;48.972;9.276;2023-05-15T06:50:05;0.37;;;0.37;;
1354;SDS011;671;48.972;9.276;2023-05-15T06:52:32;0.30;;;0.30;;
1354;SDS011;671;48.972;9.276;2023-05-15T06:54:59;0.30;;;0.30;;
1354;SDS011;671;48.972;9.276;2023-05-15T06:57:25;0.30;;;0.30;;
1354;SDS011;671;48.972;9.276;2023-05-15T06:59:52;0.30;;;0.30;;
1354;SDS011;671;48.972;9.276;2023-05-15T07:02:18;0.30;;;0.30;;
1354;SDS011;671;48.972;9.276;2023-05-15T07:04:45;0.40;;;0.40;;
1354;SDS011;671;48.972;9.276;2023-05-15T07:07:11;0.30;;;0.30;;
1354;SDS011;671;48.972;9.276;2023-05-15T07:09:38;0.30;;;0.30;;
1354;SDS011;671;48.972;9.276;2023-05-15T07:12:04;0.30;;;0.30;;
1354;SDS011;671;48.972;9.276;2023-05-15T07:14:31;0.30;;;0.30;;
1354;SDS011;671;48.972;9.276;2023-05-15T07:16:58;0.40;;;0.40;;
1354;SDS011;671;48.972;9.276;2023-05-15T07:19:25;0.30;;;0.30;;
1354;SDS011;671;48.972;9.276;2023-05-15T07:21:51;0.30;;;0.30;;
1354;SDS011;671;48.972;9.276;2023-05-15T07:24:18;0.30;;;0.30;;
1354;SDS011;671;48.972;9.276;2023-05-15T07:26:44;0.30;;;0.30;;
1354;SDS011;671;48.972;9.276;2023-05-15T07:29:11;0.30;;;0.30;;
1354;SDS011;671;48.972;9.276;2023-05-15T07:31:37;0.30;;;0.30;;
1354;SDS011;671;48.972;9.276;2023-05-15T07:34:05;0.30;;;0.20;;
1354;SDS011;671;48.972;9.276;2023-05-15T07:36:31;0.33;;;0.33;;
1354;SDS011;671;48.972;9.276;2023-05-15T07:38:58;0.30;;;0.30;;
1354;SDS011;671;48.972;9.276;2023-05-15T07:41:24;0.30;;;0.30;;
1354;SDS011;671;48.972;9.276;2023-05-15T07:43:51;0.30;;;0.30;;
1354;SDS011;671;48.972;9.276;2023-05-15T07:46:17;0.40;;;0.40;;
1354;SDS011;671;48.972;9.276;2023-05-15T07:48:44;0.30;;;0.20;;
1354;SDS011;671;48.972;9.276;2023-05-15T07:51:10;0.30;;;0.30;;
1354;SDS011;671;48.972;9.276;2023-05-15T07:53:37;0.30;;;0.30;;
1354;SDS011;671;48.972;9.276;2023-05-15T07:56:03;0.30;;;0.30;;
1354;SDS011;671;48.972;9.276;2023-05-15T07:58:30;0.30;;;0.30;;
1354;SDS011;671;48.972;9.276;2023-05-15T08:00:58;0.30;;;0.30;;
1354;SDS011;671;48.972;9.276;2023-05-15T08:03:25;0.30;;;0.20;;
1354;SDS011;671;48.972;9.276;2023-05-15T08:05:51;0.30;;;0.30;;
1354;SDS011;671;48.972;9.276;2023-05-15T08:08:18;0.30;;;0.30;;
1354;SDS011;671;48.972;9.276;2023-05-15T08:10:44;0.30;;;0.30;;
1354;SDS011;671;48.972;9.276;2023-05-15T08:13:11;0.30;;;0.30;;
1354;SDS011;671;48.972;9.276;2023-05-15T08:15:37;0.30;;;0.30;;
1354;SDS011;671;48.972;9.276;2023-05-15T08:18:07;0.30;;;0.30;;
1354;SDS011;671;48.972;9.276;2023-05-15T08:20:35;0.30;;;0.30;;
1354;SDS011;671;48.972;9.276;2023-05-15T08:23:02;0.30;;;0.30;;
1354;SDS011;671;48.972;9.276;2023-05-15T08:25:29;0.30;;;0.20;;
1354;SDS011;671;48.972;9.276;2023-05-15T08:27:55;0.30;;;0.30;;
1354;SDS011;671;48.972;9.276;2023-05-15T08:30:22;0.30;;;0.30;;
1354;SDS011;671;48.972;9.276;2023-05-15T08:32:49;0.30;;;0.20;;
1354;SDS011;671;48.972;9.276;2023-05-15T08:35:15;0.30;;;0.20;;
1354;SDS011;671;48.972;9.276;2023-05-15T08:37:42;0.30;;;0.30;;
1354;SDS011;671;48.972;9.276;2023-05-15T08:40:08;0.30;;;0.20;;
1354;SDS011;671;48.972;9.276;2023-05-15T08:42:39;0.30;;;0.20;;
1354;SDS011;671;48.972;9.276;2023-05-15T08:45:11;0.30;;;0.20;;
1354;SDS011;671;48.972;9.276;2023-05-15T08:47:39;0.30;;;0.20;;
1354;SDS011;671;48.972;9.276;2023-05-15T08:50:10;0.30;;;0.20;;
1354;SDS011;671;48.972;9.276;2023-05-15T08:52:43;0.30;;;0.20;;
1354;SDS011;671;48.972;9.276;2023-05-15T08:55:14;0.30;;;0.20;;
1354;SDS011;671;48.972;9.276;2023-05-15T08:57:41;0.30;;;0.20;;
1354;SDS011;671;48.972;9.276;2023-05-15T09:00:09;0.30;;;0.20;;
1354;SDS011;671;48.972;9.276;2023-05-15T09:02:39;0.30;;;0.20;;
1354;SDS011;671;48.972;9.276;2023-05-15T09:05:07;0.30;;;0.20;;
1354;SDS011;671;48.972;9.276;2023-05-15T09:07:35;0.30;;;0.20;;
1354;SDS011;671;48.972;9.276;2023-05-15T09:10:04;0.30;;;0.20;;
1354;SDS011;671;48.972;9.276;2023-05-15T09:12:32;0.30;;;0.20;;
1354;SDS011;671;48.972;9.276;2023-05-15T09:15:08;0.30;;;0.20;;
1354;SDS011;671;48.972;9.276;2023-05-15T09:17:35;0.30;;;0.20;;
1354;SDS011;671;48.972;9.276;2023-05-15T09:20:02;0.30;;;0.20;;
1354;SDS011;671;48.972;9.276;2023-05-15T09:22:34;0.30;;;0.20;;
1354;SDS011;671;48.972;9.276;2023-05-15T09:25:01;0.30;;;0.20;;
1354;SDS011;671;48.972;9.276;2023-05-15T09:27:28;0.30;;;0.20;;
1354;SDS011;671;48.972;9.276;2023-05-15T09:29:56;0.30;;;0.20;;
1354;SDS011;671;48.972;9.276;2023-05-15T09:32:34;0.30;;;0.20;;
1354;SDS011;671;48.972;9.276;2023-05-15T09:35:02;0.30;;;0.20;;
1354;SDS011;671;48.972;9.276;2023-05-15T09:37:30;0.30;;;0.20;;
1354;SDS011;671;48.972;9.276;2023-05-15T09:40:08;0.30;;;0.20;;
1354;SDS011;671;48.972;9.276;2023-05-15T09:42:35;0.30;;;0.20;;
1354;SDS011;671;48.972;9.276;2023-05-15T09:45:02;0.30;;;0.20;;
1354;SDS011;671;48.972;9.276;2023-05-15T09:47:29;0.30;;;0.20;;
1354;SDS011;671;48.972;9.276;2023-05-15T09:49:56;0.30;;;0.20;;
1354;SDS011;671;48.972;9.276;2023-05-15T09:52:22;0.30;;;0.20;;
1354;SDS011;671;48.972;9.276;2023-05-15T09:54:49;0.30;;;0.20;;
1354;SDS011;671;48.972;9.276;2023-05-15T09:57:19;0.30;;;0.20;;
1354;SDS011;671;48.972;9.276;2023-05-15T09:59:47;0.30;;;0.20;;
1354;SDS011;671;48.972;9.276;2023-05-15T10:02:24;0.30;;;0.20;;
1354;SDS011;671;48.972;9.276;2023-05-15T10:04:57;0.30;;;0.20;;
1354;SDS011;671;48.972;9.276;2023-05-15T10:07:30;0.30;;;0.20;;
1354;SDS011;671;48.972;9.276;2023-05-15T10:09:58;0.30;;;0.20;;
1354;SDS011;671;48.972;9.276;2023-05-15T10:12:26;0.30;;;0.20;;
1354;SDS011;671;48.972;9.276;2023-05-15T10:14:57;0.30;;;0.20;;
1354;SDS011;671;48.972;9.276;2023-05-15T10:17:26;0.30;;;0.20;;
1354;SDS011;671;48.972;9.276;2023-05-15T10:19:53;0.30;;;0.20;;
1354;SDS011;671;48.972;9.276;2023-05-15T10:22:25;0.30;;;0.20;;
1354;SDS011;671;48.972;9.276;2023-05-15T10:25:17;0.30;;;0.20;;
1354;SDS011;671;48.972;9.276;2023-05-15T10:27:41;0.30;;;0.20;;
1354;SDS011;671;48.972;9.276;2023-05-15T10:30:08;0.30;;;0.20;;
1354;SDS011;671;48.972;9.276;2023-05-15T10:32:36;0.30;;;0.20;;
1354;SDS011;671;48.972;9.276;2023-05-15T10:35:08;0.30;;;0.20;;
1354;SDS011;671;48.972;9.276;2023-05-15T10:37:39;0.30;;;0.20;;
1354;SDS011;671;48.972;9.276;2023-05-15T10:40:09;0.30;;;0.20;;
1354;SDS011;671;48.972;9.276;2023-05-15T10:42:37;0.30;;;0.20;;
1354;SDS011;671;48.972;9.276;2023-05-15T10:45:07;0.30;;;0.20;;
1354;SDS011;671;48.972;9.276;2023-05-15T10:47:35;0.30;;;0.20;;
1354;SDS011;671;48.972;9.276;2023-05-15T10:50:03;0.30;;;0.20;;
1354;SDS011;671;48.972;9.276;2023-05-15T10:52:31;0.30;;;0.20;;
1354;SDS011;671;48.972;9.276;2023-05-15T10:54:59;0.30;;;0.20;;
1354;SDS011;671;48.972;9.276;2023-05-15T10:57:27;0.30;;;0.20;;
1354;SDS011;671;48.972;9.276;2023-05-15T10:59:55;0.30;;;0.20;;
1354;SDS011;671;48.972;9.276;2023-05-15T11:02:22;0.30;;;0.20;;
1354;SDS011;671;48.972;9.276;2023-05-15T11:04:57;0.30;;;0.20;;
1354;SDS011;671;48.972;9.276;2023-05-15T11:07:25;0.30;;;0.20;;
1354;SDS011;671;48.972;9.276;2023-05-15T11:09:52;0.30;;;0.20;;
1354;SDS011;671;48.972;9.276;2023-05-15T11:12:20;0.30;;;0.20;;
1354;SDS011;671;48.972;9.276;2023-05-15T11:17:21;0.30;;;0.20;;
1354;SDS011;671;48.972;9.276;2023-05-15T11:35:28;0.30;;;0.10;;
1354;SDS011;671;48.972;9.276;2023-05-15T11:40:53;0.30;;;0.10;;
1354;SDS011;671;48.972;9.276;2023-05-15T11:48:44;0.30;;;0.10;;
1354;SDS011;671;48.972;9.276;2023-05-15T11:51:19;0.70;;;0.70;;
1354;SDS011;671;48.972;9.276;2023-05-15T11:53:48;0.30;;;0.20;;
1354;SDS011;671;48.972;9.276;2023-05-15T11:56:16;0.30;;;0.20;;
1354;SDS011;671;48.972;9.276;2023-05-15T11:58:46;0.30;;;0.10;;
1354;SDS011;671;48.972;9.276;2023-05-15T12:01:16;0.30;;;0.20;;
1354;SDS011;671;48.972;9.276;2023-05-15T12:03:45;0.30;;;0.20;;
1354;SDS011;671;48.972;9.276;2023-05-15T12:06:12;0.30;;;0.10;;
1354;SDS011;671;48.972;9.276;2023-05-15T12:08:39;0.30;;;0.20;;
1354;SDS011;671;48.972;9.276;2023-05-15T12:11:07;0.30;;;0.20;;
1354;SDS011;671;48.972;9.276;2023-05-15T12:13:34;0.30;;;0.20;;
1354;SDS011;671;48.972;9.276;2023-05-15T12:16:01;0.30;;;0.20;;
1354;SDS011;671;48.972;9.276;2023-05-15T12:18:29;0.30;;;0.10;;
1354;SDS011;671;48.972;9.276;2023-05-15T12:20:56;0.30;;;0.10;;
1354;SDS011;671;48.972;9.276;2023-05-15T12:23:23;0.30;;;0.20;;
1354;SDS011;671;48.972;9.276;2023-05-15T12:25:52;0.30;;;0.20;;
1354;SDS011;671;48.972;9.276;2023-05-15T12:28:23;0.30;;;0.20;;
1354;SDS011;671;48.972;9.276;2023-05-15T12:30:50;0.30;;;0.20;;
1354;SDS011;671;48.972;9.276;2023-05-15T12:33:17;0.30;;;0.20;;
1354;SDS011;671;48.972;9.276;2023-05-15T12:35:48;0.30;;;0.20;;
1354;SDS011;671;48.972;9.276;2023-05-15T12:38:18;0.30;;;0.20;;
1354;SDS011;671;48.972;9.276;2023-05-15T12:40:49;0.30;;;0.20;;
1354;SDS011;671;48.972;9.276;2023-05-15T12:43:18;0.30;;;0.10;;
1354;SDS011;671;48.972;9.276;2023-05-15T12:45:45;0.30;;;0.20;;
1354;SDS011;671;48.972;9.276;2023-05-15T12:48:13;0.30;;;0.20;;
1354;SDS011;671;48.972;9.276;2023-05-15T12:50:42;0.30;;;0.20;;
1354;SDS011;671;48.972;9.276;2023-05-15T12:53:11;0.30;;;0.20;;
1354;SDS011;671;48.972;9.276;2023-05-15T12:55:40;0.30;;;0.20;;
1354;SDS011;671;48.972;9.276;2023-05-15T12:58:12;0.30;;;0.20;;
1354;SDS011;671;48.972;9.276;2023-05-15T13:00:41;0.30;;;0.20;;
1354;SDS011;671;48.972;9.276;2023-05-15T13:03:08;0.30;;;0.20;;
1354;SDS011;671;48.972;9.276;2023-05-15T13:05:36;0.30;;;0.20;;
1354;SDS011;671;48.972;9.276;2023-05-15T13:08:04;0.30;;;0.20;;
1354;SDS011;671;48.972;9.276;2023-05-15T13:10:35;0.30;;;0.20;;
1354;SDS011;671;48.972;9.276;2023-05-15T13:13:02;0.30;;;0.20;;
1354;SDS011;671;48.972;9.276;2023-05-15T13:18:01;0.30;;;0.20;;
1354;SDS011;671;48.972;9.276;2023-05-15T13:20:39;0.30;;;0.20;;
1354;SDS011;671;48.972;9.276;2023-05-15T13:23:11;0.30;;;0.20;;
1354;SDS011;671;48.972;9.276;2023-05-15T13:25:41;0.30;;;0.10;;
1354;SDS011;671;48.972;9.276;2023-05-15T13:28:11;0.30;;;0.20;;
1354;SDS011;671;48.972;9.276;2023-05-15T13:30:38;0.30;;;0.20;;
1354;SDS011;671;48.972;9.276;2023-05-15T13:33:10;0.30;;;0.20;;
1354;SDS011;671;48.972;9.276;2023-05-15T13:35:37;0.30;;;0.10;;
1354;SDS011;671;48.972;9.276;2023-05-15T13:38:04;0.30;;;0.20;;
1354;SDS011;671;48.972;9.276;2023-05-15T13:40:31;0.30;;;0.20;;
1354;SDS011;671;48.972;9.276;2023-05-15T13:43:00;0.30;;;0.20;;
1354;SDS011;671;48.972;9.276;2023-05-15T13:45:26;0.30;;;0.10;;
1354;SDS011;671;48.972;9.276;2023-05-15T13:47:54;0.30;;;0.20;;
1354;SDS011;671;48.972;9.276;2023-05-15T13:50:20;0.30;;;0.20;;
1354;SDS011;671;48.972;9.276;2023-05-15T13:52:47;0.30;;;0.20;;
1354;SDS011;671;48.972;9.276;2023-05-15T13:55:13;0.30;;;0.20;;
1354;SDS011;671;48.972;9.276;2023-05-15T13:57:40;0.30;;;0.10;;
1354;SDS011;671;48.972;9.276;2023-05-15T14:00:09;0.30;;;0.20;;
1354;SDS011;671;48.972;9.276;2023-05-15T14:02:40;0.30;;;0.20;;
1354;SDS011;671;48.972;9.276;2023-05-15T14:05:08;0.30;;;0.20;;
1354;SDS011;671;48.972;9.276;2023-05-15T14:07:36;0.30;;;0.10;;
1354;SDS011;671;48.972;9.276;2023-05-15T14:10:03;0.30;;;0.20;;
1354;SDS011;671;48.972;9.276;2023-05-15T14:12:30;0.30;;;0.10;;
1354;SDS011;671;48.972;9.276;2023-05-15T14:14:57;0.43;;;0.43;;
1354;SDS011;671;48.972;9.276;2023-05-15T14:17:24;0.30;;;0.20;;
1354;SDS011;671;48.972;9.276;2023-05-15T14:19:52;0.30;;;0.20;;
1354;SDS011;671;48.972;9.276;2023-05-15T14:22:19;0.30;;;0.20;;
1354;SDS011;671;48.972;9.276;2023-05-15T14:24:50;0.30;;;0.27;;
1354;SDS011;671;48.972;9.276;2023-05-15T14:27:17;0.30;;;0.17;;
1354;SDS011;671;48.972;9.276;2023-05-15T14:29:43;0.30;;;0.20;;
1354;SDS011;671;48.972;9.276;2023-05-15T14:32:10;0.30;;;0.10;;
1354;SDS011;671;48.972;9.276;2023-05-15T14:34:36;0.30;;;0.20;;
1354;SDS011;671;48.972;9.276;2023-05-15T14:37:03;0.30;;;0.20;;
1354;SDS011;671;48.972;9.276;2023-05-15T14:39:29;0.30;;;0.20;;
1354;SDS011;671;48.972;9.276;2023-05-15T14:41:57;0.30;;;0.20;;
1354;SDS011;671;48.972;9.276;2023-05-15T14:44:24;0.30;;;0.10;;
1354;SDS011;671;48.972;9.276;2023-05-15T14:47:03;0.30;;;0.20;;
1354;SDS011;671;48.972;9.276;2023-05-15T14:49:34;0.30;;;0.20;;
1354;SDS011;671;48.972;9.276;2023-05-15T14:52:03;0.30;;;0.20;;
1354;SDS011;671;48.972;9.276;2023-05-15T14:54:31;0.30;;;0.20;;
1354;SDS011;671;48.972;9.276;2023-05-15T14:56:57;0.30;;;0.20;;
1354;SDS011;671;48.972;9.276;2023-05-15T14:59:24;0.30;;;0.20;;
1354;SDS011;671;48.972;9.276;2023-05-15T15:01:52;0.30;;;0.20;;
1354;SDS011;671;48.972;9.276;2023-05-15T15:04:18;0.30;;;0.20;;
1354;SDS011;671;48.972;9.276;2023-05-15T15:06:48;0.30;;;0.20;;
1354;SDS011;671;48.972;9.276;2023-05-15T15:09:15;0.30;;;0.20;;
1354;SDS011;671;48.972;9.276;2023-05-15T15:11:41;0.30;;;0.20;;
1354;SDS011;671;48.972;9.276;2023-05-15T15:14:08;0.30;;;0.20;;
1354;SDS011;671;48.972;9.276;2023-05-15T15:16:34;0.30;;;0.20;;
1354;SDS011;671;48.972;9.276;2023-05-15T15:19:01;0.30;;;0.20;;
1354;SDS011;671;48.972;9.276;2023-05-15T15:21:27;0.30;;;0.20;;
1354;SDS011;671;48.972;9.276;2023-05-15T15:23:54;0.30;;;0.20;;
1354;SDS011;671;48.972;9.276;2023-05-15T15:26:21;0.30;;;0.20;;
1354;SDS011;671;48.972;9.276;2023-05-15T15:28:48;0.30;;;0.20;;
1354;SDS011;671;48.972;9.276;2023-05-15T15:31:14;0.30;;;0.20;;
1354;SDS011;671;48.972;9.276;2023-05-15T15:33:41;0.30;;;0.20;;
1354;SDS011;671;48.972;9.276;2023-05-15T15:36:07;0.30;;;0.20;;
1354;SDS011;671;48.972;9.276;2023-05-15T15:38:34;0.30;;;0.20;;
1354;SDS011;671;48.972;9.276;2023-05-15T15:41:01;0.30;;;0.20;;
1354;SDS011;671;48.972;9.276;2023-05-15T15:43:28;0.30;;;0.20;;
1354;SDS011;671;48.972;9.276;2023-05-15T15:45:54;0.30;;;0.20;;
1354;SDS011;671;48.972;9.276;2023-05-15T15:48:21;0.30;;;0.20;;
1354;SDS011;671;48.972;9.276;2023-05-15T15:50:47;0.30;;;0.20;;
1354;SDS011;671;48.972;9.276;2023-05-15T15:53:14;0.30;;;0.20;;
1354;SDS011;671;48.972;9.276;2023-05-15T15:55:41;0.30;;;0.20;;
1354;SDS011;671;48.972;9.276;2023-05-15T15:58:07;0.30;;;0.20;;
1354;SDS011;671;48.972;9.276;2023-05-15T16:00:34;0.30;;;0.20;;
1354;SDS011;671;48.972;9.276;2023-05-15T16:03:02;0.30;;;0.20;;
1354;SDS011;671;48.972;9.276;2023-05-15T16:05:28;0.30;;;0.20;;
1354;SDS011;671;48.972;9.276;2023-05-15T16:07:55;0.30;;;0.20;;
1354;SDS011;671;48.972;9.276;2023-05-15T16:10:21;0.30;;;0.20;;
1354;SDS011;671;48.972;9.276;2023-05-15T16:12:48;0.30;;;0.27;;
1354;SDS011;671;48.972;9.276;2023-05-15T16:15:15;0.30;;;0.20;;
1354;SDS011;671;48.972;9.276;2023-05-15T16:17:42;0.30;;;0.20;;